createdAt,value
2022-09-07T00:01:23.800Z,2.63
2022-09-07T00:03:56.138Z,2.67
2022-09-07T00:06:26.297Z,2.40
2022-09-07T00:08:54.828Z,2.45
2022-09-07T00:11:23.616Z,2.42
2022-09-07T00:13:52.024Z,2.57
2022-09-07T00:16:23.079Z,2.63
2022-09-07T00:18:52.076Z,2.55
2022-09-07T00:21:20.467Z,2.55
2022-09-07T00:23:51.435Z,2.50
2022-09-07T00:26:21.779Z,3.00
2022-09-07T00:28:50.966Z,2.50
2022-09-07T00:31:21.042Z,2.83
2022-09-07T00:33:50.792Z,3.10
2022-09-07T00:36:20.661Z,3.40
2022-09-07T00:38:51.148Z,3.27
2022-09-07T00:41:21.078Z,4.13
2022-09-07T00:43:51.231Z,4.27
2022-09-07T00:46:21.754Z,4.27
2022-09-07T00:48:54.565Z,5.40
2022-09-07T00:51:28.516Z,4.53
2022-09-07T00:54:02.518Z,4.93
2022-09-07T00:56:36.065Z,4.93
2022-09-07T00:59:05.539Z,4.80
2022-09-07T01:01:35.042Z,4.70
2022-09-07T01:04:04.750Z,4.83
2022-09-07T01:06:36.617Z,5.27
2022-09-07T01:09:10.324Z,4.60
2022-09-07T01:11:39.789Z,5.33
2022-09-07T01:14:10.524Z,5.47
2022-09-07T01:16:58.382Z,5.50
2022-09-07T01:19:50.445Z,5.77
2022-09-07T01:22:40.341Z,4.80
2022-09-07T01:25:12.246Z,5.30
2022-09-07T01:28:04.465Z,5.23
2022-09-07T01:30:36.156Z,5.47
2022-09-07T01:33:23.203Z,5.50
2022-09-07T01:35:59.561Z,5.50
2022-09-07T01:38:32.955Z,4.93
2022-09-07T01:41:05.895Z,5.53
2022-09-07T01:43:43.867Z,5.17
2022-09-07T01:46:17.865Z,4.87
2022-09-07T01:48:47.933Z,5.43
2022-09-07T01:51:20.203Z,5.50
2022-09-07T01:53:52.978Z,5.47
2022-09-07T01:56:27.477Z,6.00
2022-09-07T01:58:59.467Z,5.37
2022-09-07T02:01:33.040Z,5.37
2022-09-07T02:04:06.295Z,5.43
2022-09-07T02:06:40.210Z,5.33
2022-09-07T02:09:14.701Z,5.30
2022-09-07T02:11:46.383Z,4.90
2022-09-07T02:14:20.880Z,5.83
2022-09-07T02:16:56.681Z,5.43
2022-09-07T02:19:28.186Z,5.37
2022-09-07T02:22:01.911Z,4.97
2022-09-07T02:24:37.368Z,4.90
2022-09-07T02:27:12.254Z,5.30
2022-09-07T02:29:43.392Z,4.77
2022-09-07T02:32:11.954Z,4.90
2022-09-07T02:34:40.501Z,5.80
2022-09-07T02:37:11.581Z,4.57
2022-09-07T02:39:40.225Z,4.67
2022-09-07T02:42:08.764Z,5.07
2022-09-07T02:44:40.681Z,5.33
2022-09-07T02:47:27.002Z,4.80
2022-09-07T02:50:16.272Z,5.60
2022-09-07T02:52:56.478Z,4.93
2022-09-07T02:55:35.178Z,4.70
2022-09-07T02:58:15.489Z,4.33
2022-09-07T03:00:52.942Z,3.83
2022-09-07T03:03:28.886Z,4.30
2022-09-07T03:06:02.499Z,4.60
2022-09-07T03:08:37.393Z,4.47
2022-09-07T03:11:06.795Z,4.50
2022-09-07T03:13:35.432Z,4.17
2022-09-07T03:16:04.225Z,4.37
2022-09-07T03:18:34.199Z,4.50
2022-09-07T03:21:02.668Z,4.50
2022-09-07T03:23:31.061Z,4.20
2022-09-07T03:25:59.487Z,4.13
2022-09-07T03:28:27.911Z,4.53
2022-09-07T03:30:56.351Z,4.27
2022-09-07T03:33:24.915Z,4.63
2022-09-07T03:36:01.327Z,4.40
2022-09-07T03:38:31.155Z,4.97
2022-09-07T03:41:01.433Z,4.70
2022-09-07T03:43:31.115Z,4.63
2022-09-07T03:46:00.363Z,4.87
2022-09-07T03:48:29.260Z,4.33
2022-09-07T03:51:00.559Z,4.80
2022-09-07T03:53:31.502Z,5.17
2022-09-07T03:56:01.284Z,4.77
2022-09-07T03:58:32.425Z,4.67
2022-09-07T04:01:02.288Z,4.70
2022-09-07T04:03:30.753Z,4.73
2022-09-07T04:06:02.066Z,5.03
2022-09-07T04:08:32.308Z,4.83
2022-09-07T04:11:01.882Z,4.70
2022-09-07T04:13:31.831Z,4.40
2022-09-07T04:16:02.835Z,4.30
2022-09-07T04:18:31.376Z,4.67
2022-09-07T04:21:01.674Z,4.30
2022-09-07T04:23:30.084Z,4.80
2022-09-07T04:25:58.618Z,4.17
2022-09-07T04:28:27.177Z,4.77
2022-09-07T04:30:55.727Z,4.03
2022-09-07T04:33:24.213Z,4.33
2022-09-07T04:35:52.669Z,4.13
2022-09-07T04:38:22.561Z,4.78
2022-09-07T04:40:51.068Z,3.87
2022-09-07T04:43:19.496Z,3.77
2022-09-07T04:45:48.032Z,3.57
2022-09-07T04:48:16.470Z,3.67
2022-09-07T04:50:44.866Z,3.73
2022-09-07T04:53:13.424Z,2.80
2022-09-07T04:55:43.386Z,3.30
2022-09-07T04:58:11.844Z,3.90
2022-09-07T05:00:40.371Z,3.03
2022-09-07T05:03:08.847Z,3.83
2022-09-07T05:05:39.596Z,3.30
2022-09-07T05:08:08.200Z,3.40
2022-09-07T05:10:36.673Z,4.10
2022-09-07T05:13:06.494Z,3.40
2022-09-07T05:15:35.006Z,3.10
2022-09-07T05:18:03.733Z,3.57
2022-09-07T05:20:32.666Z,3.57
2022-09-07T05:23:01.270Z,3.67
2022-09-07T05:25:31.487Z,3.33
2022-09-07T05:28:00.212Z,3.70
2022-09-07T05:33:22.437Z,3.70
2022-09-07T05:36:00.963Z,3.73
2022-09-07T05:38:30.242Z,4.17
2022-09-07T05:41:00.584Z,3.55
2022-09-07T05:43:29.398Z,3.30
2022-09-07T05:45:59.691Z,3.55
2022-09-07T05:48:38.807Z,3.92
2022-09-07T05:51:08.785Z,3.22
2022-09-07T05:53:41.204Z,3.03
2022-09-07T05:56:10.282Z,3.60
2022-09-07T05:58:42.361Z,3.47
2022-09-07T06:01:14.354Z,2.92
2022-09-07T06:03:44.654Z,3.78
2022-09-07T06:06:15.965Z,2.63
2022-09-07T06:08:47.469Z,3.30
2022-09-07T06:11:17.825Z,2.85
2022-09-07T06:13:47.147Z,3.20
2022-09-07T06:16:20.757Z,3.30
2022-09-07T06:18:50.986Z,3.40
2022-09-07T06:21:26.661Z,2.42
2022-09-07T06:23:59.309Z,3.55
2022-09-07T06:26:27.836Z,3.10
2022-09-07T06:28:58.032Z,3.92
2022-09-07T06:31:29.401Z,3.70
2022-09-07T06:34:00.668Z,3.47
2022-09-07T06:36:30.333Z,3.20
2022-09-07T06:39:02.787Z,3.35
2022-09-07T06:44:21.008Z,3.28
2022-09-07T06:47:06.453Z,3.63
2022-09-07T06:49:36.687Z,3.35
2022-09-07T06:52:08.553Z,2.63
2022-09-07T06:57:27.223Z,3.50
2022-09-07T06:59:55.743Z,2.65
2022-09-07T07:02:25.618Z,3.17
2022-09-07T07:04:54.105Z,2.80
2022-09-07T07:07:22.614Z,2.97
2022-09-07T07:09:52.156Z,2.88
2022-09-07T07:14:47.921Z,3.10
2022-09-07T07:17:16.400Z,2.78
2022-09-07T07:19:47.536Z,3.10
2022-09-07T07:22:43.000Z,3.25
2022-09-07T07:25:04.899Z,3.15
2022-09-07T07:27:33.393Z,3.10
2022-09-07T07:30:01.795Z,3.15
2022-09-07T07:32:33.363Z,2.92
2022-09-07T07:35:04.684Z,3.20
2022-09-07T07:37:33.358Z,3.58
2022-09-07T07:40:19.815Z,3.15
2022-09-07T07:42:50.263Z,3.38
2022-09-07T07:48:07.146Z,3.58
2022-09-07T07:50:36.943Z,3.00
2022-09-07T07:55:53.993Z,3.30
2022-09-07T07:58:22.707Z,3.25
2022-09-07T08:00:54.735Z,3.13
2022-09-07T08:03:24.269Z,3.17
2022-09-07T08:05:54.776Z,3.35
2022-09-07T08:08:24.980Z,3.45
2022-09-07T08:10:53.621Z,3.50
2022-09-07T08:13:22.518Z,3.50
2022-09-07T08:15:51.009Z,3.28
2022-09-07T08:18:19.507Z,3.28
2022-09-07T08:20:48.457Z,3.17
2022-09-07T08:23:20.452Z,2.78
2022-09-07T08:25:52.604Z,3.20
2022-09-07T08:28:21.387Z,3.03
2022-09-07T08:30:49.817Z,2.80
2022-09-07T08:33:18.134Z,2.72
2022-09-07T08:35:56.467Z,3.20
2022-09-07T08:38:26.242Z,2.60
2022-09-07T08:40:55.098Z,2.95
2022-09-07T08:43:49.239Z,3.08
2022-09-07T08:46:34.557Z,2.45
2022-09-07T08:49:04.758Z,2.65
2022-09-07T08:51:37.799Z,3.42
2022-09-07T08:54:07.999Z,2.92
2022-09-07T08:56:39.724Z,3.28
2022-09-07T08:59:17.872Z,3.13
2022-09-07T09:02:27.060Z,3.38
2022-09-07T09:05:16.237Z,3.22
2022-09-07T09:07:35.669Z,2.55
2022-09-07T09:10:17.438Z,3.22
2022-09-07T09:13:06.411Z,2.97
2022-09-07T09:15:53.239Z,2.95
2022-09-07T09:18:51.057Z,3.05
2022-09-07T09:21:20.336Z,2.65
2022-09-07T09:23:52.374Z,2.78
2022-09-07T09:26:26.329Z,2.67
2022-09-07T09:28:55.095Z,2.63
2022-09-07T09:31:27.544Z,2.72
2022-09-07T09:34:12.361Z,2.55
2022-09-07T09:36:52.619Z,2.60
2022-09-07T09:39:33.818Z,2.70
2022-09-07T09:42:20.664Z,2.53
2022-09-07T09:44:49.631Z,2.60
2022-09-07T09:47:31.769Z,2.22
2022-09-07T09:50:04.076Z,2.33
2022-09-07T09:52:47.930Z,2.33
2022-09-07T10:04:02.683Z,2.60
2022-09-07T10:06:33.279Z,2.03
2022-09-07T10:09:03.157Z,2.95
2022-09-07T10:14:36.697Z,2.30
2022-09-07T10:17:13.992Z,2.70
2022-09-07T10:19:44.254Z,2.55
2022-09-07T10:22:29.874Z,3.05
2022-09-07T10:24:58.136Z,2.72
2022-09-07T10:27:34.866Z,2.83
2022-09-07T10:30:11.006Z,2.47
2022-09-07T10:32:56.420Z,2.83
2022-09-07T10:35:29.835Z,2.85
2022-09-07T10:38:17.705Z,2.30
2022-09-07T10:40:51.488Z,2.08
2022-09-07T10:43:30.053Z,1.95
2022-09-07T10:49:27.463Z,2.70
2022-09-07T10:52:10.641Z,2.92
2022-09-07T10:54:48.811Z,2.90
2022-09-07T10:57:40.294Z,2.35
2022-09-07T11:00:13.165Z,2.65
2022-09-07T11:06:04.173Z,2.45
2022-09-07T11:14:30.578Z,2.42
2022-09-07T11:17:01.924Z,2.40
2022-09-07T11:19:37.734Z,2.65
2022-09-07T11:22:17.315Z,2.40
2022-09-07T11:27:45.904Z,2.30
2022-09-07T11:30:23.590Z,2.78
2022-09-07T11:33:04.317Z,2.65
2022-09-07T11:35:46.402Z,2.63
2022-09-07T11:38:22.854Z,2.33
2022-09-07T11:41:00.702Z,2.45
2022-09-07T11:43:32.852Z,2.70
2022-09-07T11:46:06.226Z,2.20
2022-09-07T11:48:39.507Z,2.85
2022-09-07T11:51:14.624Z,2.90
2022-09-07T11:53:46.973Z,2.20
2022-09-07T11:56:19.653Z,2.80
2022-09-07T11:59:11.408Z,2.80
2022-09-07T12:01:50.953Z,2.75
2022-09-07T12:04:31.678Z,2.22
2022-09-07T12:07:21.689Z,2.17
2022-09-07T12:10:04.445Z,2.17
2022-09-07T12:12:53.879Z,2.50
2022-09-07T12:15:33.374Z,2.58
2022-09-07T12:18:14.066Z,2.50
2022-09-07T12:20:44.276Z,2.67
2022-09-07T12:23:29.686Z,2.33
2022-09-07T12:26:39.592Z,2.47
2022-09-07T12:29:22.687Z,2.65
2022-09-07T12:32:08.270Z,2.50
2022-09-07T12:34:53.779Z,2.03
2022-09-07T12:37:43.489Z,2.63
2022-09-07T12:41:01.539Z,2.22
2022-09-07T12:44:08.223Z,2.20
2022-09-07T12:46:55.910Z,2.13
2022-09-07T12:50:10.070Z,2.53
2022-09-07T12:52:50.963Z,2.42
2022-09-07T12:58:57.015Z,2.20
2022-09-07T13:01:36.475Z,1.80
2022-09-07T13:04:29.043Z,1.98
2022-09-07T13:07:30.524Z,2.20
2022-09-07T13:10:00.195Z,2.30
2022-09-07T13:15:43.683Z,2.17
2022-09-07T13:18:28.499Z,2.40
2022-09-07T13:21:30.178Z,1.92
2022-09-07T13:24:46.485Z,2.13
2022-09-07T13:27:46.871Z,2.10
2022-09-07T13:30:48.361Z,1.90
2022-09-07T13:33:47.429Z,2.00
2022-09-07T13:36:25.809Z,2.22
2022-09-07T13:38:55.561Z,2.30
2022-09-07T13:41:26.863Z,2.65
2022-09-07T13:44:01.015Z,2.67
2022-09-07T13:46:48.791Z,2.78
2022-09-07T13:49:33.587Z,2.28
2022-09-07T13:52:08.398Z,2.38
2022-09-07T13:54:51.506Z,2.17
2022-09-07T13:57:26.886Z,2.38
2022-09-07T13:59:56.978Z,2.10
2022-09-07T14:02:29.744Z,1.98
2022-09-07T14:05:00.438Z,2.00
2022-09-07T14:07:30.751Z,1.83
2022-09-07T14:10:07.948Z,2.15
2022-09-07T14:12:43.931Z,2.45
2022-09-07T14:15:23.671Z,2.08
2022-09-07T14:18:06.988Z,2.10
2022-09-07T14:20:41.812Z,2.50
2022-09-07T14:23:21.104Z,2.30
2022-09-07T14:28:39.863Z,1.83
2022-09-07T14:31:12.806Z,2.50
2022-09-07T14:33:47.675Z,2.13
2022-09-07T14:36:39.504Z,1.88
2022-09-07T14:39:06.685Z,2.33
2022-09-07T14:41:38.623Z,2.28
2022-09-07T14:44:07.199Z,2.25
2022-09-07T14:46:35.980Z,2.28
2022-09-07T14:49:18.066Z,2.22
2022-09-07T14:51:48.356Z,2.15
2022-09-07T14:54:21.686Z,2.25
2022-09-07T14:57:02.559Z,2.28
2022-09-07T14:59:40.984Z,2.42
2022-09-07T15:02:36.023Z,2.03
2022-09-07T15:05:25.872Z,2.38
2022-09-07T15:07:56.950Z,2.10
2022-09-07T15:10:32.483Z,1.80
2022-09-07T15:13:02.609Z,2.33
2022-09-07T15:15:33.290Z,2.35
2022-09-07T15:18:08.530Z,2.15
2022-09-07T15:20:41.523Z,2.35
2022-09-07T15:23:14.545Z,2.00
2022-09-07T15:25:49.635Z,1.92
2022-09-07T15:34:11.495Z,2.22
2022-09-07T15:36:42.785Z,1.98
2022-09-07T15:39:18.294Z,2.58
2022-09-07T15:41:47.045Z,2.20
2022-09-07T15:44:16.163Z,2.28
2022-09-07T15:47:42.372Z,2.30
2022-09-07T15:49:33.119Z,2.60
2022-09-07T15:52:06.447Z,3.25
2022-09-07T15:54:37.095Z,3.05
2022-09-07T15:59:56.225Z,2.50
2022-09-07T16:05:12.880Z,2.35
2022-09-07T16:10:31.603Z,2.45
2022-09-07T16:13:01.925Z,2.60
2022-09-07T16:15:31.026Z,2.47
2022-09-07T16:17:59.583Z,2.33
2022-09-07T16:20:31.911Z,4.57
2022-09-07T16:23:17.631Z,37.50
2022-09-07T16:25:57.178Z,37.28
2022-09-07T16:28:25.716Z,32.90
2022-09-07T16:30:54.139Z,29.90
2022-09-07T16:33:27.020Z,20.50
2022-09-07T16:36:02.783Z,19.25
2022-09-07T16:38:48.693Z,21.05
2022-09-07T16:41:20.427Z,11.77
2022-09-07T16:43:48.919Z,7.68
2022-09-07T16:46:19.158Z,8.18
2022-09-07T16:48:47.811Z,8.25
2022-09-07T16:51:19.793Z,9.48
2022-09-07T16:53:50.551Z,9.23
2022-09-07T16:56:20.535Z,8.25
2022-09-07T16:58:51.129Z,8.02
2022-09-07T17:01:21.859Z,8.45
2022-09-07T17:03:50.631Z,44.83
2022-09-07T17:06:20.926Z,63.50
2022-09-07T17:08:50.893Z,82.40
2022-09-07T17:11:20.695Z,59.20
2022-09-07T17:13:49.527Z,48.83
2022-09-07T17:16:20.857Z,40.50
2022-09-07T17:21:40.543Z,16.52
2022-09-07T17:24:11.710Z,16.58
2022-09-07T17:26:42.147Z,15.25
2022-09-07T17:29:13.139Z,9.82
2022-09-07T17:34:30.418Z,7.88
2022-09-07T17:37:00.570Z,8.15
2022-09-07T17:39:31.256Z,5.63
2022-09-07T17:41:59.594Z,5.90
2022-09-07T17:44:32.082Z,8.68
2022-09-07T17:47:04.263Z,7.95
2022-09-07T17:49:32.498Z,6.38
2022-09-07T17:52:01.128Z,5.93
2022-09-07T17:54:30.935Z,5.80
2022-09-07T17:56:59.909Z,5.38
2022-09-07T18:02:16.604Z,5.30
2022-09-07T18:04:45.044Z,4.60
2022-09-07T18:07:13.577Z,5.70
2022-09-07T18:09:43.688Z,5.03
2022-09-07T18:12:11.919Z,6.43
2022-09-07T18:14:40.256Z,6.05
2022-09-07T18:17:08.525Z,6.63
2022-09-07T18:19:38.498Z,7.07
2022-09-07T18:22:08.629Z,6.25
2022-09-07T18:24:37.242Z,6.05
2022-09-07T18:27:07.949Z,5.78
2022-09-07T18:29:36.314Z,5.68
2022-09-07T18:32:09.358Z,5.45
2022-09-07T18:34:38.209Z,4.55
2022-09-07T18:37:07.349Z,5.47
2022-09-07T18:39:36.010Z,4.90
2022-09-07T18:42:04.600Z,5.35
2022-09-07T18:47:28.454Z,5.03
2022-09-07T18:49:57.972Z,4.28
2022-09-07T18:55:14.923Z,4.40
2022-09-07T18:57:43.815Z,4.80
2022-09-07T19:00:14.344Z,4.50
2022-09-07T19:02:42.962Z,4.60
2022-09-07T19:08:03.505Z,4.88
2022-09-07T19:10:35.920Z,5.45
2022-09-07T19:13:04.566Z,5.18
2022-09-07T19:15:37.631Z,5.10
2022-09-07T19:18:07.822Z,4.70
2022-09-07T19:20:36.772Z,4.85
2022-09-07T19:23:05.310Z,4.85
2022-09-07T19:25:33.560Z,5.35
2022-09-07T19:28:01.795Z,5.22
2022-09-07T19:30:30.498Z,5.18
2022-09-07T19:33:04.207Z,6.22
2022-09-07T19:35:36.876Z,5.10
2022-09-07T19:38:05.586Z,5.43
2022-09-07T19:40:34.013Z,5.32
2022-09-07T19:43:02.225Z,5.05
2022-09-07T19:45:30.592Z,5.30
2022-09-07T19:48:00.242Z,5.60
2022-09-07T19:50:28.492Z,5.70
2022-09-07T19:52:56.863Z,5.82
2022-09-07T19:55:25.120Z,6.00
2022-09-07T19:57:53.405Z,5.95
2022-09-07T20:00:22.738Z,6.53
2022-09-07T20:02:51.285Z,5.65
2022-09-07T20:05:21.154Z,5.72
2022-09-07T20:07:49.392Z,6.15
2022-09-07T20:10:17.803Z,6.53
2022-09-07T20:12:46.096Z,6.35
2022-09-07T20:15:14.443Z,5.95
2022-09-07T20:17:42.922Z,6.28
2022-09-07T20:20:11.804Z,5.90
2022-09-07T20:22:41.539Z,5.97
2022-09-07T20:25:13.088Z,5.53
2022-09-07T20:27:41.812Z,6.40
2022-09-07T20:30:11.034Z,6.13
2022-09-07T20:32:39.434Z,5.63
2022-09-07T20:35:08.289Z,6.28
2022-09-07T20:37:36.689Z,6.35
2022-09-07T20:40:07.757Z,6.18
2022-09-07T20:42:36.183Z,6.30
2022-09-07T20:45:04.875Z,6.00
2022-09-07T20:47:33.160Z,6.10
2022-09-07T20:50:01.496Z,6.55
2022-09-07T20:52:29.780Z,6.45
2022-09-07T20:54:58.071Z,7.10
2022-09-07T20:57:27.757Z,5.88
2022-09-07T20:59:56.026Z,6.93
2022-09-07T21:02:24.328Z,6.57
2022-09-07T21:04:52.615Z,6.93
2022-09-07T21:07:20.911Z,6.60
2022-09-07T21:09:49.144Z,6.35
2022-09-07T21:12:17.692Z,6.68
2022-09-07T21:14:47.337Z,6.53
2022-09-07T21:17:15.671Z,6.60
2022-09-07T21:19:43.905Z,7.60
2022-09-07T21:22:12.231Z,6.65
2022-09-07T21:24:40.455Z,7.30
2022-09-07T21:27:08.875Z,6.05
2022-09-07T21:29:37.144Z,7.22
2022-09-07T21:32:06.954Z,7.57
2022-09-07T21:34:35.200Z,6.80
2022-09-07T21:37:03.542Z,7.72
2022-09-07T21:39:31.934Z,7.18
2022-09-07T21:42:00.302Z,7.32
2022-09-07T21:44:28.735Z,7.40
2022-09-07T21:46:57.054Z,7.45
2022-09-07T21:49:27.019Z,7.60
2022-09-07T21:51:55.270Z,7.13
2022-09-07T21:54:23.531Z,7.85
2022-09-07T21:56:53.272Z,6.72
2022-09-07T21:59:21.514Z,8.38
2022-09-07T22:01:50.011Z,7.03
2022-09-07T22:04:18.392Z,7.90
2022-09-07T22:06:48.089Z,7.15
2022-09-07T22:09:16.510Z,8.25
2022-09-07T22:11:46.136Z,8.40
2022-09-07T22:14:16.519Z,7.70
2022-09-07T22:16:44.744Z,7.97
2022-09-07T22:19:13.027Z,8.10
2022-09-07T22:21:41.314Z,8.00
2022-09-07T22:24:15.181Z,8.65
2022-09-07T22:26:43.503Z,8.55
2022-09-07T22:29:13.611Z,8.10
2022-09-07T22:31:42.234Z,7.85
2022-09-07T22:34:11.227Z,8.93
2022-09-07T22:36:42.059Z,8.10
2022-09-07T22:39:13.318Z,8.20
2022-09-07T22:41:42.444Z,8.68
2022-09-07T22:44:14.061Z,8.88
2022-09-07T22:46:43.980Z,8.02
2022-09-07T22:49:13.460Z,9.30
2022-09-07T22:51:41.753Z,9.57
2022-09-07T22:54:11.557Z,9.45
2022-09-07T22:56:40.352Z,10.13
2022-09-07T22:59:10.398Z,10.50
2022-09-07T23:01:39.442Z,9.88
2022-09-07T23:04:08.725Z,9.23
2022-09-07T23:06:38.769Z,9.98
2022-09-07T23:09:09.532Z,10.38
2022-09-07T23:11:40.165Z,10.23
2022-09-07T23:14:12.869Z,9.82
2022-09-07T23:16:41.207Z,10.98
2022-09-07T23:19:10.834Z,11.85
2022-09-07T23:21:40.480Z,10.45
2022-09-07T23:24:08.935Z,9.65
2022-09-07T23:26:38.579Z,10.40
2022-09-07T23:29:07.693Z,10.75
2022-09-07T23:31:37.079Z,10.17
2022-09-07T23:34:05.953Z,10.07
2022-09-07T23:36:34.606Z,10.85
2022-09-07T23:39:02.942Z,10.73
2022-09-07T23:41:31.182Z,9.70
2022-09-07T23:44:00.886Z,10.70
2022-09-07T23:46:29.138Z,10.27
2022-09-07T23:48:57.398Z,10.50
2022-09-07T23:51:25.661Z,10.10
2022-09-07T23:53:54.381Z,10.33
2022-09-07T23:56:24.567Z,9.67
2022-09-07T23:58:53.131Z,10.53
